sensor_id;sensor_type;location;lat;lon;timestamp;temperature;humidity
11762;DHT22;5938;47.098;15.474;2023-06-01T00:00:28;14.90;99.90
11762;DHT22;5938;47.098;15.474;2023-06-01T00:04:34;14.90;99.90
11762;DHT22;5938;47.098;15.474;2023-06-01T00:08:42;14.90;99.90
11762;DHT22;5938;47.098;15.474;2023-06-01T00:12:46;14.90;99.90
11762;DHT22;5938;47.098;15.474;2023-06-01T00:16:49;14.80;99.90
11762;DHT22;5938;47.098;15.474;2023-06-01T00:20:56;14.80;99.90
11762;DHT22;5938;47.098;15.474;2023-06-01T00:25:06;14.80;99.90
11762;DHT22;5938;47.098;15.474;2023-06-01T00:29:14;14.80;99.90
11762;DHT22;5938;47.098;15.474;2023-06-01T00:38:59;14.70;99.90
11762;DHT22;5938;47.098;15.474;2023-06-01T00:43:06;14.70;99.90
11762;DHT22;5938;47.098;15.474;2023-06-01T00:47:09;14.70;99.90
11762;DHT22;5938;47.098;15.474;2023-06-01T00:51:13;14.70;99.90
11762;DHT22;5938;47.098;15.474;2023-06-01T00:55:19;14.80;99.90
11762;DHT22;5938;47.098;15.474;2023-06-01T00:59:23;14.80;99.90
11762;DHT22;5938;47.098;15.474;2023-06-01T01:03:26;14.70;99.90
11762;DHT22;5938;47.098;15.474;2023-06-01T01:07:42;14.70;99.90
11762;DHT22;5938;47.098;15.474;2023-06-01T01:28:19;14.60;99.90
11762;DHT22;5938;47.098;15.474;2023-06-01T01:32:23;14.60;99.90
11762;DHT22;5938;47.098;15.474;2023-06-01T01:36:29;14.60;99.90
11762;DHT22;5938;47.098;15.474;2023-06-01T01:40:33;14.60;99.90
11762;DHT22;5938;47.098;15.474;2023-06-01T01:44:38;14.60;99.90
11762;DHT22;5938;47.098;15.474;2023-06-01T01:48:52;14.50;99.90
11762;DHT22;5938;47.098;15.474;2023-06-01T01:52:59;14.50;99.90
11762;DHT22;5938;47.098;15.474;2023-06-01T01:57:09;14.30;99.90
11762;DHT22;5938;47.098;15.474;2023-06-01T02:01:17;14.20;99.90
11762;DHT22;5938;47.098;15.474;2023-06-01T02:05:23;14.00;99.90
11762;DHT22;5938;47.098;15.474;2023-06-01T02:09:27;13.80;99.90
11762;DHT22;5938;47.098;15.474;2023-06-01T02:13:39;13.60;99.90
11762;DHT22;5938;47.098;15.474;2023-06-01T02:17:45;13.50;99.90
11762;DHT22;5938;47.098;15.474;2023-06-01T02:21:49;13.30;99.90
11762;DHT22;5938;47.098;15.474;2023-06-01T02:25:52;13.20;99.90
11762;DHT22;5938;47.098;15.474;2023-06-01T02:29:56;13.10;99.90
11762;DHT22;5938;47.098;15.474;2023-06-01T02:34:03;12.90;99.90
11762;DHT22;5938;47.098;15.474;2023-06-01T02:38:07;12.80;99.90
11762;DHT22;5938;47.098;15.474;2023-06-01T02:42:11;12.70;99.90
11762;DHT22;5938;47.098;15.474;2023-06-01T02:46:17;12.60;99.90
11762;DHT22;5938;47.098;15.474;2023-06-01T02:50:22;12.50;99.90
11762;DHT22;5938;47.098;15.474;2023-06-01T02:54:26;12.40;99.90
11762;DHT22;5938;47.098;15.474;2023-06-01T02:58:29;12.30;99.90
11762;DHT22;5938;47.098;15.474;2023-06-01T03:02:33;12.20;99.90
11762;DHT22;5938;47.098;15.474;2023-06-01T03:06:39;12.30;99.90
11762;DHT22;5938;47.098;15.474;2023-06-01T03:10:42;12.20;99.90
11762;DHT22;5938;47.098;15.474;2023-06-01T03:14:46;12.20;99.90
11762;DHT22;5938;47.098;15.474;2023-06-01T03:18:50;12.10;99.90
11762;DHT22;5938;47.098;15.474;2023-06-01T03:22:55;12.10;99.90
11762;DHT22;5938;47.098;15.474;2023-06-01T03:26:59;12.00;99.90
11762;DHT22;5938;47.098;15.474;2023-06-01T03:31:03;12.00;99.90
11762;DHT22;5938;47.098;15.474;2023-06-01T03:35:09;12.00;99.90
11762;DHT22;5938;47.098;15.474;2023-06-01T03:39:15;11.90;99.90
11762;DHT22;5938;47.098;15.474;2023-06-01T03:43:19;11.90;99.90
11762;DHT22;5938;47.098;15.474;2023-06-01T03:47:22;11.90;99.90
11762;DHT22;5938;47.098;15.474;2023-06-01T03:51:27;11.90;99.90
11762;DHT22;5938;47.098;15.474;2023-06-01T03:55:32;11.90;99.90
11762;DHT22;5938;47.098;15.474;2023-06-01T03:59:36;12.00;99.90
11762;DHT22;5938;47.098;15.474;2023-06-01T04:03:41;12.00;99.90
11762;DHT22;5938;47.098;15.474;2023-06-01T04:07:49;12.00;99.90
11762;DHT22;5938;47.098;15.474;2023-06-01T04:17:27;12.20;99.90
11762;DHT22;5938;47.098;15.474;2023-06-01T04:26:54;12.30;99.90
11762;DHT22;5938;47.098;15.474;2023-06-01T04:31:01;12.40;99.90
11762;DHT22;5938;47.098;15.474;2023-06-01T04:35:08;12.50;99.90
11762;DHT22;5938;47.098;15.474;2023-06-01T04:39:11;12.50;99.90
11762;DHT22;5938;47.098;15.474;2023-06-01T04:43:15;12.70;99.90
11762;DHT22;5938;47.098;15.474;2023-06-01T04:47:21;12.80;99.90
11762;DHT22;5938;47.098;15.474;2023-06-01T04:51:26;12.90;99.90
11762;DHT22;5938;47.098;15.474;2023-06-01T04:55:31;13.10;99.90
11762;DHT22;5938;47.098;15.474;2023-06-01T04:59:34;13.20;99.90
11762;DHT22;5938;47.098;15.474;2023-06-01T05:03:38;13.30;99.90
11762;DHT22;5938;47.098;15.474;2023-06-01T05:07:43;13.40;99.90
11762;DHT22;5938;47.098;15.474;2023-06-01T05:11:46;13.50;99.90
11762;DHT22;5938;47.098;15.474;2023-06-01T05:15:50;13.60;99.90
11762;DHT22;5938;47.098;15.474;2023-06-01T05:19:53;13.80;99.90
11762;DHT22;5938;47.098;15.474;2023-06-01T05:23:58;14.00;99.90
11762;DHT22;5938;47.098;15.474;2023-06-01T05:28:02;14.40;99.90
11762;DHT22;5938;47.098;15.474;2023-06-01T05:32:07;14.70;99.90
11762;DHT22;5938;47.098;15.474;2023-06-01T05:36:11;14.90;99.90
11762;DHT22;5938;47.098;15.474;2023-06-01T05:40:16;15.10;99.90
11762;DHT22;5938;47.098;15.474;2023-06-01T05:44:19;15.30;99.90
11762;DHT22;5938;47.098;15.474;2023-06-01T05:48:23;15.40;99.90
11762;DHT22;5938;47.098;15.474;2023-06-01T05:52:26;15.70;99.90
11762;DHT22;5938;47.098;15.474;2023-06-01T05:56:37;15.80;99.90
11762;DHT22;5938;47.098;15.474;2023-06-01T06:00:42;16.10;99.90
11762;DHT22;5938;47.098;15.474;2023-06-01T06:04:45;16.40;99.90
11762;DHT22;5938;47.098;15.474;2023-06-01T06:08:49;16.50;99.90
11762;DHT22;5938;47.098;15.474;2023-06-01T06:12:59;16.80;99.90
11762;DHT22;5938;47.098;15.474;2023-06-01T06:17:03;16.90;99.90
11762;DHT22;5938;47.098;15.474;2023-06-01T06:21:06;17.10;99.90
11762;DHT22;5938;47.098;15.474;2023-06-01T06:25:10;17.30;99.90
11762;DHT22;5938;47.098;15.474;2023-06-01T06:29:16;17.40;99.90
11762;DHT22;5938;47.098;15.474;2023-06-01T06:33:19;17.50;99.90
11762;DHT22;5938;47.098;15.474;2023-06-01T06:37:22;17.80;99.90
11762;DHT22;5938;47.098;15.474;2023-06-01T06:41:26;18.10;99.90
11762;DHT22;5938;47.098;15.474;2023-06-01T06:45:30;18.40;99.90
11762;DHT22;5938;47.098;15.474;2023-06-01T06:49:35;18.80;99.90
11762;DHT22;5938;47.098;15.474;2023-06-01T06:53:38;19.10;99.90
11762;DHT22;5938;47.098;15.474;2023-06-01T06:57:41;19.30;99.90
11762;DHT22;5938;47.098;15.474;2023-06-01T07:01:46;19.50;97.60
11762;DHT22;5938;47.098;15.474;2023-06-01T07:05:50;19.60;97.60
11762;DHT22;5938;47.098;15.474;2023-06-01T07:09:53;19.80;96.50
11762;DHT22;5938;47.098;15.474;2023-06-01T07:13:56;20.00;96.20
11762;DHT22;5938;47.098;15.474;2023-06-01T07:18:02;20.30;95.50
11762;DHT22;5938;47.098;15.474;2023-06-01T07:22:06;20.40;95.50
11762;DHT22;5938;47.098;15.474;2023-06-01T07:26:09;20.70;93.40
11762;DHT22;5938;47.098;15.474;2023-06-01T07:30:13;20.80;93.70
11762;DHT22;5938;47.098;15.474;2023-06-01T07:34:18;21.00;92.30
11762;DHT22;5938;47.098;15.474;2023-06-01T07:38:21;21.10;91.30
11762;DHT22;5938;47.098;15.474;2023-06-01T07:42:24;21.40;93.00
11762;DHT22;5938;47.098;15.474;2023-06-01T07:46:28;21.80;90.60
11762;DHT22;5938;47.098;15.474;2023-06-01T07:50:32;22.20;90.70
11762;DHT22;5938;47.098;15.474;2023-06-01T07:54:36;22.40;90.50
11762;DHT22;5938;47.098;15.474;2023-06-01T07:58:39;22.60;87.30
11762;DHT22;5938;47.098;15.474;2023-06-01T08:02:42;22.90;87.60
11762;DHT22;5938;47.098;15.474;2023-06-01T08:06:49;23.20;87.60
11762;DHT22;5938;47.098;15.474;2023-06-01T08:10:54;23.80;85.80
11762;DHT22;5938;47.098;15.474;2023-06-01T08:14:58;23.90;86.90
11762;DHT22;5938;47.098;15.474;2023-06-01T08:19:01;24.40;88.00
11762;DHT22;5938;47.098;15.474;2023-06-01T08:23:06;24.60;83.30
11762;DHT22;5938;47.098;15.474;2023-06-01T08:27:16;25.90;80.90
11762;DHT22;5938;47.098;15.474;2023-06-01T08:31:23;26.40;82.10
11762;DHT22;5938;47.098;15.474;2023-06-01T08:35:26;26.20;80.90
11762;DHT22;5938;47.098;15.474;2023-06-01T08:39:32;26.10;80.70
11762;DHT22;5938;47.098;15.474;2023-06-01T08:43:36;26.50;82.20
11762;DHT22;5938;47.098;15.474;2023-06-01T08:47:41;26.60;80.10
11762;DHT22;5938;47.098;15.474;2023-06-01T08:51:46;25.90;78.00
11762;DHT22;5938;47.098;15.474;2023-06-01T08:55:53;26.70;77.50
11762;DHT22;5938;47.098;15.474;2023-06-01T08:59:57;27.50;77.50
11762;DHT22;5938;47.098;15.474;2023-06-01T09:04:00;28.20;77.50
11762;DHT22;5938;47.098;15.474;2023-06-01T09:08:04;28.00;75.70
11762;DHT22;5938;47.098;15.474;2023-06-01T09:12:20;28.10;78.00
11762;DHT22;5938;47.098;15.474;2023-06-01T09:16:35;28.60;73.60
11762;DHT22;5938;47.098;15.474;2023-06-01T09:20:39;29.30;75.00
11762;DHT22;5938;47.098;15.474;2023-06-01T09:24:58;30.60;69.70
11762;DHT22;5938;47.098;15.474;2023-06-01T09:29:03;30.30;69.00
11762;DHT22;5938;47.098;15.474;2023-06-01T09:33:10;30.50;69.70
11762;DHT22;5938;47.098;15.474;2023-06-01T09:37:16;32.60;67.60
11762;DHT22;5938;47.098;15.474;2023-06-01T09:41:19;31.90;68.20
11762;DHT22;5938;47.098;15.474;2023-06-01T09:45:26;31.30;67.30
11762;DHT22;5938;47.098;15.474;2023-06-01T09:49:31;31.50;69.40
11762;DHT22;5938;47.098;15.474;2023-06-01T09:53:41;31.70;67.20
11762;DHT22;5938;47.098;15.474;2023-06-01T09:57:44;31.90;67.20
11762;DHT22;5938;47.098;15.474;2023-06-01T10:01:51;32.70;64.60
11762;DHT22;5938;47.098;15.474;2023-06-01T10:05:56;33.10;63.70
11762;DHT22;5938;47.098;15.474;2023-06-01T10:10:01;31.40;66.70
11762;DHT22;5938;47.098;15.474;2023-06-01T10:14:06;31.50;65.20
11762;DHT22;5938;47.098;15.474;2023-06-01T10:18:10;32.00;63.40
11762;DHT22;5938;47.098;15.474;2023-06-01T10:22:14;32.30;64.30
11762;DHT22;5938;47.098;15.474;2023-06-01T10:26:22;32.50;62.40
11762;DHT22;5938;47.098;15.474;2023-06-01T10:30:34;31.50;63.70
11762;DHT22;5938;47.098;15.474;2023-06-01T10:34:41;30.00;68.30
11762;DHT22;5938;47.098;15.474;2023-06-01T10:38:45;30.10;70.40
11762;DHT22;5938;47.098;15.474;2023-06-01T10:42:48;31.00;66.00
11762;DHT22;5938;47.098;15.474;2023-06-01T10:46:52;32.40;65.70
11762;DHT22;5938;47.098;15.474;2023-06-01T10:51:18;32.40;61.50
11762;DHT22;5938;47.098;15.474;2023-06-01T10:55:23;31.80;64.30
11762;DHT22;5938;47.098;15.474;2023-06-01T10:59:27;30.10;66.70
11762;DHT22;5938;47.098;15.474;2023-06-01T11:03:44;31.20;66.30
11762;DHT22;5938;47.098;15.474;2023-06-01T11:07:50;30.00;68.30
11762;DHT22;5938;47.098;15.474;2023-06-01T11:12:00;29.70;68.00
11762;DHT22;5938;47.098;15.474;2023-06-01T11:16:29;30.80;63.80
11762;DHT22;5938;47.098;15.474;2023-06-01T11:20:38;30.80;63.20
11762;DHT22;5938;47.098;15.474;2023-06-01T11:24:47;32.00;62.80
11762;DHT22;5938;47.098;15.474;2023-06-01T11:29:04;33.50;59.80
11762;DHT22;5938;47.098;15.474;2023-06-01T11:33:08;33.80;57.50
11762;DHT22;5938;47.098;15.474;2023-06-01T11:37:13;33.50;59.10
11762;DHT22;5938;47.098;15.474;2023-06-01T11:41:19;35.00;56.60
11762;DHT22;5938;47.098;15.474;2023-06-01T11:45:24;35.00;55.30
11762;DHT22;5938;47.098;15.474;2023-06-01T11:49:29;35.10;54.90
11762;DHT22;5938;47.098;15.474;2023-06-01T11:53:32;33.30;57.10
11762;DHT22;5938;47.098;15.474;2023-06-01T11:57:40;34.40;54.50
11762;DHT22;5938;47.098;15.474;2023-06-01T12:01:45;36.00;55.50
11762;DHT22;5938;47.098;15.474;2023-06-01T12:05:48;36.40;55.00
11762;DHT22;5938;47.098;15.474;2023-06-01T12:09:52;37.30;53.00
11762;DHT22;5938;47.098;15.474;2023-06-01T12:13:58;36.80;52.50
11762;DHT22;5938;47.098;15.474;2023-06-01T12:18:02;37.90;49.70
11762;DHT22;5938;47.098;15.474;2023-06-01T12:22:05;37.50;49.70
11762;DHT22;5938;47.098;15.474;2023-06-01T12:26:09;38.00;51.30
11762;DHT22;5938;47.098;15.474;2023-06-01T12:30:21;37.50;49.10
11762;DHT22;5938;47.098;15.474;2023-06-01T12:34:25;36.70;50.40
11762;DHT22;5938;47.098;15.474;2023-06-01T12:38:34;34.60;54.60
11762;DHT22;5938;47.098;15.474;2023-06-01T12:42:39;33.80;55.90
11762;DHT22;5938;47.098;15.474;2023-06-01T12:46:44;32.90;57.80
11762;DHT22;5938;47.098;15.474;2023-06-01T12:50:47;31.70;59.30
11762;DHT22;5938;47.098;15.474;2023-06-01T12:54:56;30.60;61.30
11762;DHT22;5938;47.098;15.474;2023-06-01T12:59:00;30.00;62.60
11762;DHT22;5938;47.098;15.474;2023-06-01T13:03:06;30.00;62.60
11762;DHT22;5938;47.098;15.474;2023-06-01T13:07:11;30.40;64.40
11762;DHT22;5938;47.098;15.474;2023-06-01T13:11:15;30.80;66.50
11762;DHT22;5938;47.098;15.474;2023-06-01T13:15:21;31.70;62.40
11762;DHT22;5938;47.098;15.474;2023-06-01T13:19:26;34.00;57.20
11762;DHT22;5938;47.098;15.474;2023-06-01T13:23:31;34.10;56.20
11762;DHT22;5938;47.098;15.474;2023-06-01T13:27:35;31.70;61.50
11762;DHT22;5938;47.098;15.474;2023-06-01T13:31:41;32.00;59.50
11762;DHT22;5938;47.098;15.474;2023-06-01T13:35:48;32.50;56.80
11762;DHT22;5938;47.098;15.474;2023-06-01T13:39:54;34.50;55.90
11762;DHT22;5938;47.098;15.474;2023-06-01T13:43:58;34.70;55.70
11762;DHT22;5938;47.098;15.474;2023-06-01T13:48:01;36.20;52.30
11762;DHT22;5938;47.098;15.474;2023-06-01T13:52:08;38.10;48.50
11762;DHT22;5938;47.098;15.474;2023-06-01T13:56:12;37.30;48.50
11762;DHT22;5938;47.098;15.474;2023-06-01T14:00:17;38.20;49.00
11762;DHT22;5938;47.098;15.474;2023-06-01T14:04:23;38.10;47.70
11762;DHT22;5938;47.098;15.474;2023-06-01T14:08:31;38.60;47.80
11762;DHT22;5938;47.098;15.474;2023-06-01T14:12:34;38.90;47.60
11762;DHT22;5938;47.098;15.474;2023-06-01T14:16:38;38.60;45.90
11762;DHT22;5938;47.098;15.474;2023-06-01T14:20:42;40.10;46.90
11762;DHT22;5938;47.098;15.474;2023-06-01T14:24:49;38.90;46.00
11762;DHT22;5938;47.098;15.474;2023-06-01T14:28:53;37.90;51.60
11762;DHT22;5938;47.098;15.474;2023-06-01T14:32:57;37.60;48.60
11762;DHT22;5938;47.098;15.474;2023-06-01T14:37:01;35.60;51.80
11762;DHT22;5938;47.098;15.474;2023-06-01T14:41:09;33.30;55.60
11762;DHT22;5938;47.098;15.474;2023-06-01T14:45:14;31.20;61.00
11762;DHT22;5938;47.098;15.474;2023-06-01T14:49:18;29.70;69.60
11762;DHT22;5938;47.098;15.474;2023-06-01T14:53:25;29.70;66.40
11762;DHT22;5938;47.098;15.474;2023-06-01T14:57:31;32.10;60.60
11762;DHT22;5938;47.098;15.474;2023-06-01T15:01:36;32.60;58.80
11762;DHT22;5938;47.098;15.474;2023-06-01T15:05:44;34.00;62.70
11762;DHT22;5938;47.098;15.474;2023-06-01T15:09:49;35.60;53.90
11762;DHT22;5938;47.098;15.474;2023-06-01T15:13:59;36.70;52.90
11762;DHT22;5938;47.098;15.474;2023-06-01T15:18:03;37.20;50.70
11762;DHT22;5938;47.098;15.474;2023-06-01T15:22:08;36.80;50.70
11762;DHT22;5938;47.098;15.474;2023-06-01T15:26:13;38.30;49.50
11762;DHT22;5938;47.098;15.474;2023-06-01T15:30:19;39.00;49.60
11762;DHT22;5938;47.098;15.474;2023-06-01T15:34:26;37.80;48.90
11762;DHT22;5938;47.098;15.474;2023-06-01T15:38:31;38.20;51.40
11762;DHT22;5938;47.098;15.474;2023-06-01T15:42:39;37.30;50.80
11762;DHT22;5938;47.098;15.474;2023-06-01T15:46:47;36.90;50.50
11762;DHT22;5938;47.098;15.474;2023-06-01T15:50:52;36.30;50.10
11762;DHT22;5938;47.098;15.474;2023-06-01T15:54:56;37.20;53.80
11762;DHT22;5938;47.098;15.474;2023-06-01T15:58:59;35.80;49.70
11762;DHT22;5938;47.098;15.474;2023-06-01T16:03:04;35.40;51.40
11762;DHT22;5938;47.098;15.474;2023-06-01T16:07:08;36.60;53.90
11762;DHT22;5938;47.098;15.474;2023-06-01T16:11:11;35.60;55.30
11762;DHT22;5938;47.098;15.474;2023-06-01T16:15:14;32.60;57.10
11762;DHT22;5938;47.098;15.474;2023-06-01T16:19:19;29.20;64.60
11762;DHT22;5938;47.098;15.474;2023-06-01T16:23:23;27.20;67.80
11762;DHT22;5938;47.098;15.474;2023-06-01T16:27:26;26.00;70.90
11762;DHT22;5938;47.098;15.474;2023-06-01T16:31:29;26.10;73.70
11762;DHT22;5938;47.098;15.474;2023-06-01T16:35:34;25.90;70.90
11762;DHT22;5938;47.098;15.474;2023-06-01T16:39:37;25.60;71.80
11762;DHT22;5938;47.098;15.474;2023-06-01T16:43:42;25.20;73.00
11762;DHT22;5938;47.098;15.474;2023-06-01T16:47:46;25.00;73.60
11762;DHT22;5938;47.098;15.474;2023-06-01T16:51:51;24.50;74.40
11762;DHT22;5938;47.098;15.474;2023-06-01T16:55:54;24.00;75.50
11762;DHT22;5938;47.098;15.474;2023-06-01T16:59:58;23.90;74.70
11762;DHT22;5938;47.098;15.474;2023-06-01T17:04:01;23.70;79.80
11762;DHT22;5938;47.098;15.474;2023-06-01T17:08:06;23.40;80.20
11762;DHT22;5938;47.098;15.474;2023-06-01T17:12:10;23.10;81.30
11762;DHT22;5938;47.098;15.474;2023-06-01T17:16:19;22.90;83.90
11762;DHT22;5938;47.098;15.474;2023-06-01T17:20:23;22.60;85.80
11762;DHT22;5938;47.098;15.474;2023-06-01T17:24:27;22.30;86.50
11762;DHT22;5938;47.098;15.474;2023-06-01T17:28:32;22.00;89.40
11762;DHT22;5938;47.098;15.474;2023-06-01T17:32:35;21.70;90.50
11762;DHT22;5938;47.098;15.474;2023-06-01T17:36:38;21.40;91.40
11762;DHT22;5938;47.098;15.474;2023-06-01T17:40:43;21.30;90.80
11762;DHT22;5938;47.098;15.474;2023-06-01T17:44:47;21.00;91.30
11762;DHT22;5938;47.098;15.474;2023-06-01T17:48:50;20.90;92.00
11762;DHT22;5938;47.098;15.474;2023-06-01T17:52:54;20.80;92.00
11762;DHT22;5938;47.098;15.474;2023-06-01T17:56:59;20.80;92.60
11762;DHT22;5938;47.098;15.474;2023-06-01T18:01:02;20.60;92.10
11762;DHT22;5938;47.098;15.474;2023-06-01T18:05:06;20.40;93.30
11762;DHT22;5938;47.098;15.474;2023-06-01T18:09:15;20.30;93.00
11762;DHT22;5938;47.098;15.474;2023-06-01T18:13:42;20.20;93.70
11762;DHT22;5938;47.098;15.474;2023-06-01T18:23:11;20.00;94.30
11762;DHT22;5938;47.098;15.474;2023-06-01T18:27:19;19.90;95.30
11762;DHT22;5938;47.098;15.474;2023-06-01T18:31:26;19.70;95.20
11762;DHT22;5938;47.098;15.474;2023-06-01T18:35:30;19.60;96.20
11762;DHT22;5938;47.098;15.474;2023-06-01T18:39:34;19.30;97.10
11762;DHT22;5938;47.098;15.474;2023-06-01T18:43:47;19.10;97.40
11762;DHT22;5938;47.098;15.474;2023-06-01T18:47:52;18.90;97.90
11762;DHT22;5938;47.098;15.474;2023-06-01T18:51:56;18.70;98.00
11762;DHT22;5938;47.098;15.474;2023-06-01T18:56:00;18.50;99.10
11762;DHT22;5938;47.098;15.474;2023-06-01T19:00:05;18.30;99.40
11762;DHT22;5938;47.098;15.474;2023-06-01T19:04:13;18.10;99.90
11762;DHT22;5938;47.098;15.474;2023-06-01T19:08:19;17.90;99.90
11762;DHT22;5938;47.098;15.474;2023-06-01T19:12:25;17.80;99.90
11762;DHT22;5938;47.098;15.474;2023-06-01T19:16:31;17.50;99.90
11762;DHT22;5938;47.098;15.474;2023-06-01T19:25:17;17.20;99.90
11762;DHT22;5938;47.098;15.474;2023-06-01T19:29:21;17.10;99.90
11762;DHT22;5938;47.098;15.474;2023-06-01T19:33:28;17.00;99.90
11762;DHT22;5938;47.098;15.474;2023-06-01T19:37:34;16.90;99.90
11762;DHT22;5938;47.098;15.474;2023-06-01T19:46:52;16.80;99.90
11762;DHT22;5938;47.098;15.474;2023-06-01T19:51:40;16.80;99.90
11762;DHT22;5938;47.098;15.474;2023-06-01T20:12:06;16.50;99.90
11762;DHT22;5938;47.098;15.474;2023-06-01T20:16:38;16.20;99.90
11762;DHT22;5938;47.098;15.474;2023-06-01T20:26:53;16.10;99.90
